sensor_id;sensor_type;location;lat;lon;timestamp;noise_LAeq;noise_LA_min;noise_LA_max;noise_LA01;noise_LA95
74470;Laerm;62918;55.706;37.816;2023-02-28T00:00:08;43.60;40.78;50.87;;
74470;Laerm;62918;55.706;37.816;2023-02-28T00:00:40;45.77;41.16;53.79;;
74470;Laerm;62918;55.706;37.816;2023-02-28T00:01:12;44.19;40.42;51.44;;
74470;Laerm;62918;55.706;37.816;2023-02-28T00:01:43;43.51;39.93;46.87;;
74470;Laerm;62918;55.706;37.816;2023-02-28T00:02:14;43.05;40.23;47.49;;
74470;Laerm;62918;55.706;37.816;2023-02-28T00:02:45;43.21;40.09;47.95;;
74470;Laerm;62918;55.706;37.816;2023-02-28T00:03:16;49.43;42.01;58.01;;
74470;Laerm;62918;55.706;37.816;2023-02-28T00:03:47;49.90;43.51;55.82;;
74470;Laerm;62918;55.706;37.816;2023-02-28T00:04:17;52.41;42.80;59.01;;
74470;Laerm;62918;55.706;37.816;2023-02-28T00:04:48;44.14;40.68;47.13;;
74470;Laerm;62918;55.706;37.816;2023-02-28T00:05:24;43.13;40.43;46.37;;
74470;Laerm;62918;55.706;37.816;2023-02-28T00:05:55;44.49;40.71;49.23;;
74470;Laerm;62918;55.706;37.816;2023-02-28T00:06:26;43.24;40.33;46.08;;
74470;Laerm;62918;55.706;37.816;2023-02-28T00:06:57;43.53;41.07;46.36;;
74470;Laerm;62918;55.706;37.816;2023-02-28T00:07:27;47.67;41.61;56.85;;
74470;Laerm;62918;55.706;37.816;2023-02-28T00:07:58;59.81;50.36;67.39;;
74470;Laerm;62918;55.706;37.816;2023-02-28T00:08:28;57.58;52.02;63.96;;
74470;Laerm;62918;55.706;37.816;2023-02-28T00:08:59;55.74;51.54;60.24;;
74470;Laerm;62918;55.706;37.816;2023-02-28T00:09:30;61.50;50.33;69.98;;
74470;Laerm;62918;55.706;37.816;2023-02-28T00:10:00;54.11;46.74;61.33;;
74470;Laerm;62918;55.706;37.816;2023-02-28T00:10:31;51.62;43.86;58.94;;
74470;Laerm;62918;55.706;37.816;2023-02-28T00:11:03;59.16;43.96;69.96;;
74470;Laerm;62918;55.706;37.816;2023-02-28T00:11:35;59.24;43.08;68.58;;
74470;Laerm;62918;55.706;37.816;2023-02-28T00:12:08;60.14;48.56;67.26;;
74470;Laerm;62918;55.706;37.816;2023-02-28T00:12:40;65.81;42.10;75.58;;
74470;Laerm;62918;55.706;37.816;2023-02-28T00:13:11;57.12;41.76;74.65;;
74470;Laerm;62918;55.706;37.816;2023-02-28T00:13:45;46.52;41.13;52.60;;
74470;Laerm;62918;55.706;37.816;2023-02-28T00:14:16;46.49;42.69;53.28;;
74470;Laerm;62918;55.706;37.816;2023-02-28T00:14:47;51.30;46.18;56.45;;
74470;Laerm;62918;55.706;37.816;2023-02-28T00:15:18;45.38;39.70;51.92;;
74470;Laerm;62918;55.706;37.816;2023-02-28T00:15:58;66.81;41.58;81.02;;
74470;Laerm;62918;55.706;37.816;2023-02-28T00:16:29;57.38;41.40;65.25;;
74470;Laerm;62918;55.706;37.816;2023-02-28T00:17:00;54.57;41.83;62.27;;
74470;Laerm;62918;55.706;37.816;2023-02-28T00:17:30;49.39;41.27;69.05;;
74470;Laerm;62918;55.706;37.816;2023-02-28T00:18:01;61.74;41.43;69.93;;
74470;Laerm;62918;55.706;37.816;2023-02-28T00:18:32;55.65;40.03;65.30;;
74470;Laerm;62918;55.706;37.816;2023-02-28T00:19:03;52.12;40.61;62.60;;
74470;Laerm;62918;55.706;37.816;2023-02-28T00:19:33;48.77;41.17;55.95;;
74470;Laerm;62918;55.706;37.816;2023-02-28T00:20:05;51.04;40.95;59.66;;
74470;Laerm;62918;55.706;37.816;2023-02-28T00:20:42;50.86;41.58;58.29;;
74470;Laerm;62918;55.706;37.816;2023-02-28T00:21:12;47.73;42.10;54.80;;
74470;Laerm;62918;55.706;37.816;2023-02-28T00:21:43;55.23;47.04;61.95;;
74470;Laerm;62918;55.706;37.816;2023-02-28T00:22:15;50.44;46.98;64.40;;
74470;Laerm;62918;55.706;37.816;2023-02-28T00:22:49;55.99;46.49;65.39;;
74470;Laerm;62918;55.706;37.816;2023-02-28T00:23:20;49.47;41.00;59.15;;
74470;Laerm;62918;55.706;37.816;2023-02-28T00:23:50;51.75;41.07;60.75;;
74470;Laerm;62918;55.706;37.816;2023-02-28T00:24:21;56.59;41.66;65.91;;
74470;Laerm;62918;55.706;37.816;2023-02-28T00:24:51;52.96;40.54;62.20;;
74470;Laerm;62918;55.706;37.816;2023-02-28T00:25:24;43.10;40.24;48.01;;
74470;Laerm;62918;55.706;37.816;2023-02-28T00:25:55;45.93;39.83;52.48;;
74470;Laerm;62918;55.706;37.816;2023-02-28T00:26:25;43.60;40.40;48.70;;
74470;Laerm;62918;55.706;37.816;2023-02-28T00:26:56;51.95;43.74;58.75;;
74470;Laerm;62918;55.706;37.816;2023-02-28T00:27:26;57.47;43.56;66.44;;
74470;Laerm;62918;55.706;37.816;2023-02-28T00:27:57;47.94;41.74;56.95;;
74470;Laerm;62918;55.706;37.816;2023-02-28T00:28:27;55.69;45.11;62.58;;
74470;Laerm;62918;55.706;37.816;2023-02-28T00:28:58;47.03;40.76;57.35;;
74470;Laerm;62918;55.706;37.816;2023-02-28T00:29:29;50.62;41.57;59.57;;
74470;Laerm;62918;55.706;37.816;2023-02-28T00:29:59;45.87;40.82;52.13;;
74470;Laerm;62918;55.706;37.816;2023-02-28T00:30:30;50.70;40.30;58.22;;
74470;Laerm;62918;55.706;37.816;2023-02-28T00:31:00;42.33;39.42;44.82;;
74470;Laerm;62918;55.706;37.816;2023-02-28T00:31:31;43.53;39.56;50.81;;
74470;Laerm;62918;55.706;37.816;2023-02-28T00:32:01;45.85;40.18;51.94;;
74470;Laerm;62918;55.706;37.816;2023-02-28T00:32:32;55.69;42.33;66.30;;
74470;Laerm;62918;55.706;37.816;2023-02-28T00:33:03;54.43;46.56;60.99;;
74470;Laerm;62918;55.706;37.816;2023-02-28T00:33:33;53.21;42.64;62.67;;
74470;Laerm;62918;55.706;37.816;2023-02-28T00:34:04;58.12;42.03;69.05;;
74470;Laerm;62918;55.706;37.816;2023-02-28T00:34:34;43.98;41.25;46.67;;
74470;Laerm;62918;55.706;37.816;2023-02-28T00:35:08;44.28;40.76;48.41;;
74470;Laerm;62918;55.706;37.816;2023-02-28T00:35:39;44.71;40.55;58.03;;
74470;Laerm;62918;55.706;37.816;2023-02-28T00:36:11;58.76;42.29;67.78;;
74470;Laerm;62918;55.706;37.816;2023-02-28T00:36:42;57.54;47.78;65.51;;
74470;Laerm;62918;55.706;37.816;2023-02-28T00:37:15;50.56;44.05;65.22;;
74470;Laerm;62918;55.706;37.816;2023-02-28T00:37:47;49.96;42.90;56.36;;
74470;Laerm;62918;55.706;37.816;2023-02-28T00:38:18;48.65;42.06;54.81;;
74470;Laerm;62918;55.706;37.816;2023-02-28T00:38:48;51.90;41.50;60.55;;
74470;Laerm;62918;55.706;37.816;2023-02-28T00:39:19;43.59;40.42;47.49;;
74470;Laerm;62918;55.706;37.816;2023-02-28T00:39:50;47.39;40.84;54.58;;
74470;Laerm;62918;55.706;37.816;2023-02-28T00:40:20;54.21;39.92;62.21;;
74470;Laerm;62918;55.706;37.816;2023-02-28T00:40:51;53.85;40.98;63.29;;
74470;Laerm;62918;55.706;37.816;2023-02-28T00:41:21;43.44;39.92;49.19;;
74470;Laerm;62918;55.706;37.816;2023-02-28T00:41:52;50.14;40.97;61.13;;
74470;Laerm;62918;55.706;37.816;2023-02-28T00:42:23;45.66;41.52;52.41;;
74470;Laerm;62918;55.706;37.816;2023-02-28T00:42:54;44.84;40.65;54.27;;
74470;Laerm;62918;55.706;37.816;2023-02-28T00:43:25;48.30;41.03;55.72;;
74470;Laerm;62918;55.706;37.816;2023-02-28T00:43:56;54.94;42.34;62.98;;
74470;Laerm;62918;55.706;37.816;2023-02-28T00:44:26;56.01;45.18;63.60;;
74470;Laerm;62918;55.706;37.816;2023-02-28T00:44:57;59.38;48.34;66.77;;
74470;Laerm;62918;55.706;37.816;2023-02-28T00:45:27;59.85;50.77;67.28;;
74470;Laerm;62918;55.706;37.816;2023-02-28T00:45:58;53.71;47.40;60.75;;
74470;Laerm;62918;55.706;37.816;2023-02-28T00:46:28;51.87;48.78;56.63;;
74470;Laerm;62918;55.706;37.816;2023-02-28T00:47:00;53.16;42.51;60.41;;
74470;Laerm;62918;55.706;37.816;2023-02-28T00:47:31;47.33;41.34;54.40;;
74470;Laerm;62918;55.706;37.816;2023-02-28T00:48:02;48.39;41.29;54.48;;
74470;Laerm;62918;55.706;37.816;2023-02-28T00:48:34;51.31;41.43;56.67;;
74470;Laerm;62918;55.706;37.816;2023-02-28T00:49:04;47.86;42.14;54.41;;
74470;Laerm;62918;55.706;37.816;2023-02-28T00:49:35;47.04;41.41;53.78;;
74470;Laerm;62918;55.706;37.816;2023-02-28T00:50:07;56.63;44.00;64.99;;
74470;Laerm;62918;55.706;37.816;2023-02-28T00:50:37;51.10;43.81;59.16;;
74470;Laerm;62918;55.706;37.816;2023-02-28T00:51:08;54.01;43.60;62.09;;
74470;Laerm;62918;55.706;37.816;2023-02-28T00:51:38;51.56;43.81;57.13;;
74470;Laerm;62918;55.706;37.816;2023-02-28T00:52:09;55.32;45.68;67.39;;
74470;Laerm;62918;55.706;37.816;2023-02-28T00:52:40;53.00;46.87;65.13;;
74470;Laerm;62918;55.706;37.816;2023-02-28T00:53:10;67.12;42.50;84.96;;
74470;Laerm;62918;55.706;37.816;2023-02-28T00:53:41;45.44;41.33;55.62;;
74470;Laerm;62918;55.706;37.816;2023-02-28T00:54:11;48.71;41.38;60.44;;
74470;Laerm;62918;55.706;37.816;2023-02-28T00:54:42;46.69;42.66;50.54;;
74470;Laerm;62918;55.706;37.816;2023-02-28T00:55:13;44.99;40.98;49.72;;
74470;Laerm;62918;55.706;37.816;2023-02-28T00:55:43;43.31;39.84;52.29;;
74470;Laerm;62918;55.706;37.816;2023-02-28T00:56:14;43.26;40.70;45.74;;
74470;Laerm;62918;55.706;37.816;2023-02-28T00:56:44;53.74;40.43;61.85;;
74470;Laerm;62918;55.706;37.816;2023-02-28T00:57:16;56.09;43.53;63.87;;
74470;Laerm;62918;55.706;37.816;2023-02-28T00:57:46;45.16;41.52;50.14;;
74470;Laerm;62918;55.706;37.816;2023-02-28T00:58:17;46.14;43.03;51.72;;
74470;Laerm;62918;55.706;37.816;2023-02-28T00:58:48;50.38;41.96;58.08;;
74470;Laerm;62918;55.706;37.816;2023-02-28T00:59:18;43.78;40.62;46.89;;
74470;Laerm;62918;55.706;37.816;2023-02-28T00:59:49;50.82;40.98;60.28;;
74470;Laerm;62918;55.706;37.816;2023-02-28T01:00:20;50.15;41.11;59.46;;
74470;Laerm;62918;55.706;37.816;2023-02-28T01:00:51;56.02;45.36;65.19;;
74470;Laerm;62918;55.706;37.816;2023-02-28T01:01:22;51.97;43.29;59.01;;
74470;Laerm;62918;55.706;37.816;2023-02-28T01:01:53;52.30;44.29;57.82;;
74470;Laerm;62918;55.706;37.816;2023-02-28T01:02:24;55.44;44.63;62.52;;
74470;Laerm;62918;55.706;37.816;2023-02-28T01:02:54;54.50;44.09;61.78;;
74470;Laerm;62918;55.706;37.816;2023-02-28T01:03:25;49.03;42.77;56.64;;
74470;Laerm;62918;55.706;37.816;2023-02-28T01:03:55;51.01;42.75;56.31;;
74470;Laerm;62918;55.706;37.816;2023-02-28T01:04:26;44.94;42.16;47.97;;
74470;Laerm;62918;55.706;37.816;2023-02-28T01:04:57;44.80;40.51;51.31;;
74470;Laerm;62918;55.706;37.816;2023-02-28T01:05:27;54.30;44.54;61.79;;
74470;Laerm;62918;55.706;37.816;2023-02-28T01:05:58;45.57;42.35;50.58;;
74470;Laerm;62918;55.706;37.816;2023-02-28T01:06:29;56.18;41.88;64.65;;
74470;Laerm;62918;55.706;37.816;2023-02-28T01:06:59;50.85;42.99;60.29;;
74470;Laerm;62918;55.706;37.816;2023-02-28T01:07:30;51.00;42.90;61.59;;
74470;Laerm;62918;55.706;37.816;2023-02-28T01:08:00;46.06;41.71;49.72;;
74470;Laerm;62918;55.706;37.816;2023-02-28T01:08:31;51.48;41.15;64.26;;
74470;Laerm;62918;55.706;37.816;2023-02-28T01:09:03;58.18;43.76;68.83;;
74470;Laerm;62918;55.706;37.816;2023-02-28T01:09:34;50.98;42.70;59.06;;
74470;Laerm;62918;55.706;37.816;2023-02-28T01:10:05;52.44;44.28;61.13;;
74470;Laerm;62918;55.706;37.816;2023-02-28T01:10:35;55.36;47.15;61.14;;
74470;Laerm;62918;55.706;37.816;2023-02-28T01:11:11;49.41;44.15;56.29;;
74470;Laerm;62918;55.706;37.816;2023-02-28T01:11:42;51.40;44.47;57.31;;
74470;Laerm;62918;55.706;37.816;2023-02-28T01:12:14;46.62;41.70;53.29;;
74470;Laerm;62918;55.706;37.816;2023-02-28T01:12:45;47.49;41.66;58.75;;
74470;Laerm;62918;55.706;37.816;2023-02-28T01:13:16;51.50;46.46;59.73;;
74470;Laerm;62918;55.706;37.816;2023-02-28T01:13:46;52.11;47.42;58.09;;
74470;Laerm;62918;55.706;37.816;2023-02-28T01:14:18;63.33;49.15;70.51;;
74470;Laerm;62918;55.706;37.816;2023-02-28T01:14:48;59.76;52.75;67.96;;
74470;Laerm;62918;55.706;37.816;2023-02-28T01:15:19;55.82;52.03;61.43;;
74470;Laerm;62918;55.706;37.816;2023-02-28T01:15:51;51.44;43.93;57.90;;
74470;Laerm;62918;55.706;37.816;2023-02-28T01:16:23;44.38;41.24;48.34;;
74470;Laerm;62918;55.706;37.816;2023-02-28T01:16:54;44.05;41.28;46.99;;
74470;Laerm;62918;55.706;37.816;2023-02-28T01:17:24;44.61;41.06;48.38;;
74470;Laerm;62918;55.706;37.816;2023-02-28T01:17:56;45.35;41.47;49.03;;
74470;Laerm;62918;55.706;37.816;2023-02-28T01:18:27;45.35;41.10;49.82;;
74470;Laerm;62918;55.706;37.816;2023-02-28T01:18:58;44.41;41.30;48.31;;
74470;Laerm;62918;55.706;37.816;2023-02-28T01:19:29;44.18;40.70;47.12;;
74470;Laerm;62918;55.706;37.816;2023-02-28T01:19:59;44.15;41.44;46.76;;
74470;Laerm;62918;55.706;37.816;2023-02-28T01:20:30;47.55;41.60;54.92;;
74470;Laerm;62918;55.706;37.816;2023-02-28T01:21:09;44.92;40.67;48.52;;
74470;Laerm;62918;55.706;37.816;2023-02-28T01:21:40;49.95;41.55;56.20;;
74470;Laerm;62918;55.706;37.816;2023-02-28T01:22:11;49.45;42.23;60.89;;
74470;Laerm;62918;55.706;37.816;2023-02-28T01:22:41;52.68;46.24;60.33;;
74470;Laerm;62918;55.706;37.816;2023-02-28T01:23:12;59.27;47.66;67.79;;
74470;Laerm;62918;55.706;37.816;2023-02-28T01:23:43;45.29;41.33;50.76;;
74470;Laerm;62918;55.706;37.816;2023-02-28T01:24:14;43.92;40.30;52.33;;
74470;Laerm;62918;55.706;37.816;2023-02-28T01:24:44;44.62;40.63;62.25;;
74470;Laerm;62918;55.706;37.816;2023-02-28T01:25:15;45.07;41.20;53.38;;
74470;Laerm;62918;55.706;37.816;2023-02-28T01:25:45;53.09;42.57;63.20;;
74470;Laerm;62918;55.706;37.816;2023-02-28T01:26:19;65.52;53.59;73.37;;
74470;Laerm;62918;55.706;37.816;2023-02-28T01:26:50;48.94;42.93;58.11;;
74470;Laerm;62918;55.706;37.816;2023-02-28T01:27:21;45.45;42.23;50.11;;
74470;Laerm;62918;55.706;37.816;2023-02-28T01:27:51;62.45;46.21;69.84;;
74470;Laerm;62918;55.706;37.816;2023-02-28T01:28:22;55.38;45.11;67.36;;
74470;Laerm;62918;55.706;37.816;2023-02-28T01:28:53;55.88;44.55;63.24;;
74470;Laerm;62918;55.706;37.816;2023-02-28T01:29:23;52.85;44.12;61.84;;
74470;Laerm;62918;55.706;37.816;2023-02-28T01:29:54;52.39;46.45;60.22;;
74470;Laerm;62918;55.706;37.816;2023-02-28T01:30:24;48.75;40.88;56.41;;
74470;Laerm;62918;55.706;37.816;2023-02-28T01:30:55;44.54;41.76;47.54;;
74470;Laerm;62918;55.706;37.816;2023-02-28T01:31:25;49.88;41.79;57.81;;
74470;Laerm;62918;55.706;37.816;2023-02-28T01:31:56;45.23;41.43;51.64;;
74470;Laerm;62918;55.706;37.816;2023-02-28T01:32:29;55.27;41.52;67.80;;
74470;Laerm;62918;55.706;37.816;2023-02-28T01:33:00;59.97;51.08;67.22;;
74470;Laerm;62918;55.706;37.816;2023-02-28T01:33:31;58.68;46.80;66.51;;
74470;Laerm;62918;55.706;37.816;2023-02-28T01:34:02;45.23;42.00;55.51;;
74470;Laerm;62918;55.706;37.816;2023-02-28T01:34:32;44.17;41.03;48.40;;
74470;Laerm;62918;55.706;37.816;2023-02-28T01:35:03;46.24;41.98;50.07;;
74470;Laerm;62918;55.706;37.816;2023-02-28T01:35:35;53.55;43.02;60.22;;
74470;Laerm;62918;55.706;37.816;2023-02-28T01:36:09;44.60;41.53;50.94;;
74470;Laerm;62918;55.706;37.816;2023-02-28T01:36:41;50.37;42.07;56.24;;
74470;Laerm;62918;55.706;37.816;2023-02-28T01:37:12;54.92;47.14;65.38;;
74470;Laerm;62918;55.706;37.816;2023-02-28T01:37:42;53.10;46.73;60.35;;
74470;Laerm;62918;55.706;37.816;2023-02-28T01:38:13;52.60;42.70;60.56;;
74470;Laerm;62918;55.706;37.816;2023-02-28T01:38:44;54.49;44.03;60.79;;
74470;Laerm;62918;55.706;37.816;2023-02-28T01:39:15;45.22;41.84;47.84;;
74470;Laerm;62918;55.706;37.816;2023-02-28T01:39:45;48.15;41.73;53.57;;
74470;Laerm;62918;55.706;37.816;2023-02-28T01:40:16;51.23;46.82;55.84;;
74470;Laerm;62918;55.706;37.816;2023-02-28T01:40:46;48.24;42.75;56.30;;
74470;Laerm;62918;55.706;37.816;2023-02-28T01:41:23;54.13;45.40;60.35;;
74470;Laerm;62918;55.706;37.816;2023-02-28T01:41:54;51.72;43.72;58.65;;
74470;Laerm;62918;55.706;37.816;2023-02-28T01:42:24;51.89;43.49;61.52;;
74470;Laerm;62918;55.706;37.816;2023-02-28T01:42:55;54.44;45.53;63.37;;
74470;Laerm;62918;55.706;37.816;2023-02-28T01:43:28;51.85;45.71;57.36;;
74470;Laerm;62918;55.706;37.816;2023-02-28T01:44:07;56.47;47.07;63.40;;
74470;Laerm;62918;55.706;37.816;2023-02-28T01:45:49;49.75;43.29;60.26;;
74470;Laerm;62918;55.706;37.816;2023-02-28T01:46:20;56.22;46.21;62.90;;
74470;Laerm;62918;55.706;37.816;2023-02-28T01:46:50;58.87;50.90;71.16;;
74470;Laerm;62918;55.706;37.816;2023-02-28T01:47:21;66.43;53.50;74.49;;
74470;Laerm;62918;55.706;37.816;2023-02-28T01:47:57;56.81;48.78;62.54;;
74470;Laerm;62918;55.706;37.816;2023-02-28T01:48:31;57.14;42.38;66.31;;
74470;Laerm;62918;55.706;37.816;2023-02-28T01:49:07;52.46;43.62;60.30;;
74470;Laerm;62918;55.706;37.816;2023-02-28T01:49:39;50.26;45.30;55.03;;
74470;Laerm;62918;55.706;37.816;2023-02-28T01:50:15;46.13;41.98;52.29;;
74470;Laerm;62918;55.706;37.816;2023-02-28T01:50:47;46.45;41.11;54.15;;
74470;Laerm;62918;55.706;37.816;2023-02-28T01:51:22;46.08;42.96;58.24;;
74470;Laerm;62918;55.706;37.816;2023-02-28T01:51:56;51.15;43.18;61.38;;
74470;Laerm;62918;55.706;37.816;2023-02-28T01:52:27;51.48;46.52;59.72;;
74470;Laerm;62918;55.706;37.816;2023-02-28T01:53:01;54.20;47.31;62.38;;
74470;Laerm;62918;55.706;37.816;2023-02-28T01:53:39;52.28;45.29;60.84;;
74470;Laerm;62918;55.706;37.816;2023-02-28T01:54:15;49.51;42.91;56.78;;
74470;Laerm;62918;55.706;37.816;2023-02-28T01:54:52;60.94;46.75;66.96;;
74470;Laerm;62918;55.706;37.816;2023-02-28T01:55:25;53.71;48.37;58.74;;
74470;Laerm;62918;55.706;37.816;2023-02-28T01:55:58;46.30;42.65;50.72;;
74470;Laerm;62918;55.706;37.816;2023-02-28T01:56:33;48.91;43.16;57.27;;
74470;Laerm;62918;55.706;37.816;2023-02-28T01:57:12;49.23;42.03;56.24;;
74470;Laerm;62918;55.706;37.816;2023-02-28T01:57:50;47.04;43.64;54.05;;
74470;Laerm;62918;55.706;37.816;2023-02-28T01:58:22;52.07;44.75;59.75;;
74470;Laerm;62918;55.706;37.816;2023-02-28T01:58:54;60.93;49.53;73.99;;
74470;Laerm;62918;55.706;37.816;2023-02-28T01:59:31;56.60;46.20;68.28;;
74470;Laerm;62918;55.706;37.816;2023-02-28T02:00:14;54.53;44.11;62.19;;
74470;Laerm;62918;55.706;37.816;2023-02-28T02:00:45;50.51;43.32;58.51;;
74470;Laerm;62918;55.706;37.816;2023-02-28T02:01:17;46.18;42.43;55.84;;
74470;Laerm;62918;55.706;37.816;2023-02-28T02:01:53;51.16;43.45;59.36;;
74470;Laerm;62918;55.706;37.816;2023-02-28T02:02:24;58.48;49.06;63.03;;
74470;Laerm;62918;55.706;37.816;2023-02-28T02:02:58;47.05;42.84;52.26;;
74470;Laerm;62918;55.706;37.816;2023-02-28T02:03:30;46.02;42.85;53.21;;
74470;Laerm;62918;55.706;37.816;2023-02-28T02:04:02;56.38;46.62;62.30;;
74470;Laerm;62918;55.706;37.816;2023-02-28T02:04:38;53.02;46.33;57.92;;
74470;Laerm;62918;55.706;37.816;2023-02-28T02:05:19;61.90;46.19;74.38;;
74470;Laerm;62918;55.706;37.816;2023-02-28T02:05:49;61.80;47.04;73.88;;
74470;Laerm;62918;55.706;37.816;2023-02-28T02:06:30;51.57;45.85;58.66;;
74470;Laerm;62918;55.706;37.816;2023-02-28T02:07:04;50.73;44.05;59.19;;
74470;Laerm;62918;55.706;37.816;2023-02-28T02:07:40;56.26;50.28;64.82;;
74470;Laerm;62918;55.706;37.816;2023-02-28T02:08:15;54.23;46.59;62.53;;
74470;Laerm;62918;55.706;37.816;2023-02-28T02:08:46;52.05;44.11;58.79;;
74470;Laerm;62918;55.706;37.816;2023-02-28T02:09:16;52.68;44.08;58.02;;
74470;Laerm;62918;55.706;37.816;2023-02-28T02:09:47;55.92;48.18;61.97;;
74470;Laerm;62918;55.706;37.816;2023-02-28T02:11:04;58.95;50.27;65.57;;
74470;Laerm;62918;55.706;37.816;2023-02-28T02:11:18;57.33;48.87;66.59;;
74470;Laerm;62918;55.706;37.816;2023-02-28T02:11:49;54.38;47.06;65.47;;
74470;Laerm;62918;55.706;37.816;2023-02-28T02:13:08;55.67;47.68;61.72;;
74470;Laerm;62918;55.706;37.816;2023-02-28T02:14:55;58.66;45.67;73.84;;
74470;Laerm;62918;55.706;37.816;2023-02-28T02:17:00;52.18;45.14;58.67;;
74470;Laerm;62918;55.706;37.816;2023-02-28T02:17:45;57.12;48.80;65.63;;
74470;Laerm;62918;55.706;37.816;2023-02-28T02:20:07;53.99;47.40;61.31;;
74470;Laerm;62918;55.706;37.816;2023-02-28T02:23:44;60.18;53.21;66.78;;
74470;Laerm;62918;55.706;37.816;2023-02-28T02:24:50;57.84;45.76;68.57;;
74470;Laerm;62918;55.706;37.816;2023-02-28T02:29:48;56.68;47.76;70.32;;
74470;Laerm;62918;55.706;37.816;2023-02-28T02:30:53;48.56;44.78;54.02;;
74470;Laerm;62918;55.706;37.816;2023-02-28T02:35:13;54.00;48.31;64.70;;
74470;Laerm;62918;55.706;37.816;2023-02-28T02:35:53;52.85;47.59;59.39;;
74470;Laerm;62918;55.706;37.816;2023-02-28T02:37:52;59.53;49.08;69.78;;
74470;Laerm;62918;55.706;37.816;2023-02-28T02:39:44;59.15;51.49;68.19;;
74470;Laerm;62918;55.706;37.816;2023-02-28T02:41:41;61.35;50.41;72.69;;
74470;Laerm;62918;55.706;37.816;2023-02-28T02:42:24;58.84;47.49;65.38;;
74470;Laerm;62918;55.706;37.816;2023-02-28T02:44:27;56.61;49.55;64.97;;
74470;Laerm;62918;55.706;37.816;2023-02-28T02:45:53;49.99;45.26;55.67;;
74470;Laerm;62918;55.706;37.816;2023-02-28T02:46:39;60.10;49.66;66.37;;
74470;Laerm;62918;55.706;37.816;2023-02-28T02:47:17;56.85;49.87;63.12;;
74470;Laerm;62918;55.706;37.816;2023-02-28T02:47:50;57.68;51.43;63.89;;
74470;Laerm;62918;55.706;37.816;2023-02-28T02:48:25;58.30;51.67;65.38;;
74470;Laerm;62918;55.706;37.816;2023-02-28T02:49:00;60.59;54.49;66.85;;
74470;Laerm;62918;55.706;37.816;2023-02-28T02:49:33;56.36;49.00;62.97;;
74470;Laerm;62918;55.706;37.816;2023-02-28T02:50:12;64.21;50.55;71.48;;
74470;Laerm;62918;55.706;37.816;2023-02-28T02:50:49;58.72;50.81;66.82;;
74470;Laerm;62918;55.706;37.816;2023-02-28T02:51:22;56.88;47.09;62.48;;
74470;Laerm;62918;55.706;37.816;2023-02-28T02:51:54;54.29;45.24;63.87;;
74470;Laerm;62918;55.706;37.816;2023-02-28T02:52:38;54.49;46.68;59.88;;
74470;Laerm;62918;55.706;37.816;2023-02-28T02:53:12;54.53;45.86;61.54;;
74470;Laerm;62918;55.706;37.816;2023-02-28T02:53:54;60.51;49.60;72.80;;
74470;Laerm;62918;55.706;37.816;2023-02-28T02:54:29;61.41;54.62;67.05;;
74470;Laerm;62918;55.706;37.816;2023-02-28T02:55:02;62.74;55.55;68.51;;
74470;Laerm;62918;55.706;37.816;2023-02-28T02:55:38;56.33;47.35;62.43;;
74470;Laerm;62918;55.706;37.816;2023-02-28T02:56:12;65.71;52.18;73.01;;
74470;Laerm;62918;55.706;37.816;2023-02-28T02:56:46;64.93;55.89;71.78;;
74470;Laerm;62918;55.706;37.816;2023-02-28T02:57:25;52.25;47.68;58.58;;
74470;Laerm;62918;55.706;37.816;2023-02-28T02:58:03;56.16;49.68;66.02;;
74470;Laerm;62918;55.706;37.816;2023-02-28T02:58:40;57.66;50.16;65.12;;
74470;Laerm;62918;55.706;37.816;2023-02-28T02:59:15;56.65;50.19;64.36;;
74470;Laerm;62918;55.706;37.816;2023-02-28T02:59:53;59.21;50.91;67.90;;
74470;Laerm;62918;55.706;37.816;2023-02-28T03:00:37;59.42;51.86;66.59;;
74470;Laerm;62918;55.706;37.816;2023-02-28T03:01:14;68.78;48.13;79.46;;
74470;Laerm;62918;55.706;37.816;2023-02-28T03:01:49;59.82;47.11;67.08;;
74470;Laerm;62918;55.706;37.816;2023-02-28T03:02:21;60.35;53.45;66.09;;
74470;Laerm;62918;55.706;37.816;2023-02-28T03:02:54;67.00;59.09;74.06;;
74470;Laerm;62918;55.706;37.816;2023-02-28T03:03:26;60.75;52.45;69.37;;
74470;Laerm;62918;55.706;37.816;2023-02-28T03:04:08;64.58;58.68;70.12;;
74470;Laerm;62918;55.706;37.816;2023-02-28T03:04:46;58.47;51.50;63.17;;
74470;Laerm;62918;55.706;37.816;2023-02-28T03:05:23;63.78;51.95;73.66;;
74470;Laerm;62918;55.706;37.816;2023-02-28T03:05:57;63.09;52.51;73.41;;
74470;Laerm;62918;55.706;37.816;2023-02-28T03:06:29;57.20;52.80;63.70;;
74470;Laerm;62918;55.706;37.816;2023-02-28T03:06:59;59.15;52.99;64.54;;
74470;Laerm;62918;55.706;37.816;2023-02-28T03:07:30;56.15;50.87;64.55;;
74470;Laerm;62918;55.706;37.816;2023-02-28T03:08:03;61.37;55.88;67.45;;
74470;Laerm;62918;55.706;37.816;2023-02-28T03:08:37;60.37;52.29;72.76;;
74470;Laerm;62918;55.706;37.816;2023-02-28T03:09:08;62.44;53.83;69.32;;
74470;Laerm;62918;55.706;37.816;2023-02-28T03:09:39;60.84;53.16;67.34;;
74470;Laerm;62918;55.706;37.816;2023-02-28T03:11:00;54.56;49.86;60.53;;
74470;Laerm;62918;55.706;37.816;2023-02-28T03:11:32;60.95;49.75;67.81;;
74470;Laerm;62918;55.706;37.816;2023-02-28T03:12:10;57.24;49.17;64.48;;
74470;Laerm;62918;55.706;37.816;2023-02-28T03:12:52;62.35;57.38;69.32;;
74470;Laerm;62918;55.706;37.816;2023-02-28T03:15:07;59.25;51.71;72.76;;
74470;Laerm;62918;55.706;37.816;2023-02-28T03:21:03;62.64;52.33;70.26;;
74470;Laerm;62918;55.706;37.816;2023-02-28T03:21:52;63.77;56.55;74.80;;
74470;Laerm;62918;55.706;37.816;2023-02-28T03:22:45;66.51;60.23;75.25;;
74470;Laerm;62918;55.706;37.816;2023-02-28T03:23:23;67.34;61.05;75.28;;
74470;Laerm;62918;55.706;37.816;2023-02-28T03:24:11;66.00;59.25;74.51;;
74470;Laerm;62918;55.706;37.816;2023-02-28T03:24:56;66.21;58.53;73.48;;
74470;Laerm;62918;55.706;37.816;2023-02-28T03:25:54;61.73;51.78;68.53;;
74470;Laerm;62918;55.706;37.816;2023-02-28T03:26:27;64.05;59.73;69.24;;
74470;Laerm;62918;55.706;37.816;2023-02-28T03:27:11;64.52;56.55;70.35;;
74470;Laerm;62918;55.706;37.816;2023-02-28T03:28:06;66.17;60.57;76.71;;
74470;Laerm;62918;55.706;37.816;2023-02-28T03:28:53;62.87;52.71;76.75;;
74470;Laerm;62918;55.706;37.816;2023-02-28T03:29:33;59.78;52.57;71.00;;
74470;Laerm;62918;55.706;37.816;2023-02-28T03:30:10;57.83;52.61;67.16;;
74470;Laerm;62918;55.706;37.816;2023-02-28T03:30:51;62.28;53.11;74.44;;
74470;Laerm;62918;55.706;37.816;2023-02-28T03:31:28;66.05;62.03;75.34;;
74470;Laerm;62918;55.706;37.816;2023-02-28T03:33:07;65.31;58.00;73.12;;
74470;Laerm;62918;55.706;37.816;2023-02-28T03:33:44;63.13;53.56;69.48;;
74470;Laerm;62918;55.706;37.816;2023-02-28T03:34:37;63.07;53.58;71.62;;
74470;Laerm;62918;55.706;37.816;2023-02-28T03:35:19;67.44;59.49;73.93;;
74470;Laerm;62918;55.706;37.816;2023-02-28T03:35:55;64.41;56.88;69.92;;
74470;Laerm;62918;55.706;37.816;2023-02-28T03:36:44;68.08;54.85;75.43;;
74470;Laerm;62918;55.706;37.816;2023-02-28T03:37:19;63.31;54.26;72.60;;